createdAt,value
2022-08-28T00:01:05.479Z,15.65
2022-08-28T00:03:32.810Z,15.77
2022-08-28T00:06:01.017Z,13.45
2022-08-28T00:08:28.833Z,11.32
2022-08-28T00:10:56.215Z,11.52
2022-08-28T00:13:25.393Z,7.75
2022-08-28T00:16:01.072Z,11.68
2022-08-28T00:18:31.300Z,12.35
2022-08-28T00:20:59.791Z,10.93
2022-08-28T00:23:40.315Z,20.25
2022-08-28T00:26:11.449Z,8.85
2022-08-28T00:28:38.596Z,10.70
2022-08-28T00:31:05.856Z,13.50
2022-08-28T00:33:35.399Z,11.80
2022-08-28T00:36:03.795Z,15.30
2022-08-28T00:38:31.502Z,13.38
2022-08-28T00:41:03.966Z,20.23
2022-08-28T00:43:41.736Z,17.52
2022-08-28T00:46:23.073Z,12.50
2022-08-28T00:48:50.925Z,17.15
2022-08-28T00:51:39.084Z,12.93
2022-08-28T00:54:08.396Z,10.68
2022-08-28T00:56:39.853Z,11.35
2022-08-28T00:59:15.643Z,12.00
2022-08-28T01:01:45.525Z,14.48
2022-08-28T01:04:20.300Z,14.20
2022-08-28T01:06:52.575Z,13.52
2022-08-28T01:09:22.938Z,15.73
2022-08-28T01:11:54.345Z,16.92
2022-08-28T01:14:23.488Z,15.43
2022-08-28T01:16:55.654Z,19.90
2022-08-28T01:19:38.010Z,17.38
2022-08-28T01:22:23.107Z,19.00
2022-08-28T01:24:54.251Z,14.20
2022-08-28T01:27:24.957Z,26.83
2022-08-28T01:29:52.311Z,30.40
2022-08-28T01:32:44.207Z,30.65
2022-08-28T01:35:18.867Z,28.20
2022-08-28T01:37:45.947Z,25.80
2022-08-28T01:40:17.804Z,28.33
2022-08-28T01:42:45.194Z,35.75
2022-08-28T01:45:18.457Z,28.67
2022-08-28T01:47:46.936Z,21.05
2022-08-28T01:50:18.679Z,28.17
2022-08-28T01:52:45.721Z,31.52
2022-08-28T01:55:13.726Z,22.00
2022-08-28T01:57:50.363Z,35.88
2022-08-28T02:00:18.780Z,23.40
2022-08-28T02:02:46.137Z,20.42
2022-08-28T02:05:13.195Z,26.30
2022-08-28T02:07:40.702Z,21.65
2022-08-28T02:10:11.128Z,22.25
2022-08-28T02:12:38.811Z,24.02
2022-08-28T02:15:07.743Z,23.80
2022-08-28T02:17:35.025Z,18.40
2022-08-28T02:20:02.395Z,20.13
2022-08-28T02:22:29.539Z,15.35
2022-08-28T02:24:56.540Z,20.98
2022-08-28T02:27:23.680Z,16.60
2022-08-28T02:29:50.993Z,15.75
2022-08-28T02:32:18.614Z,19.80
2022-08-28T02:34:45.650Z,17.88
2022-08-28T02:37:13.763Z,16.67
2022-08-28T02:39:41.405Z,19.70
2022-08-28T02:42:09.386Z,14.32
2022-08-28T02:44:36.533Z,15.35
2022-08-28T02:47:05.134Z,16.48
2022-08-28T02:49:35.537Z,19.05
2022-08-28T02:52:04.698Z,16.52
2022-08-28T02:54:31.651Z,16.23
2022-08-28T02:56:58.737Z,19.63
2022-08-28T02:59:25.796Z,14.15
2022-08-28T03:01:52.998Z,13.93
2022-08-28T03:04:20.058Z,16.35
2022-08-28T03:06:47.148Z,14.68
2022-08-28T03:09:14.157Z,16.95
2022-08-28T03:11:41.478Z,14.27
2022-08-28T03:14:08.539Z,14.05
2022-08-28T03:16:35.631Z,16.75
2022-08-28T03:19:04.015Z,15.50
2022-08-28T03:21:31.001Z,16.90
2022-08-28T03:23:58.406Z,15.80
2022-08-28T03:26:25.409Z,17.13
2022-08-28T03:28:54.085Z,14.63
2022-08-28T03:31:28.474Z,14.07
2022-08-28T03:33:56.239Z,21.23
2022-08-28T03:36:27.148Z,16.50
2022-08-28T03:38:57.287Z,17.00
2022-08-28T03:41:29.194Z,19.92
2022-08-28T03:44:01.072Z,13.25
2022-08-28T03:46:34.293Z,18.05
2022-08-28T03:49:04.852Z,22.35
2022-08-28T03:51:34.172Z,14.75
2022-08-28T03:54:04.368Z,16.63
2022-08-28T03:56:31.806Z,15.73
2022-08-28T03:59:05.252Z,13.68
2022-08-28T04:01:33.635Z,15.02
2022-08-28T04:04:01.011Z,19.60
2022-08-28T04:06:28.122Z,13.10
2022-08-28T04:08:55.855Z,14.23
2022-08-28T04:11:28.138Z,13.40
2022-08-28T04:13:55.127Z,16.15
2022-08-28T04:16:22.197Z,11.95
2022-08-28T04:18:50.137Z,16.23
2022-08-28T04:21:23.870Z,19.27
2022-08-28T04:23:51.338Z,14.93
2022-08-28T04:26:22.950Z,18.27
2022-08-28T04:28:50.728Z,19.13
2022-08-28T04:31:19.814Z,18.23
2022-08-28T04:34:05.528Z,16.63
2022-08-28T04:36:36.373Z,17.52
2022-08-28T04:39:08.577Z,13.93
2022-08-28T04:41:38.841Z,14.18
2022-08-28T04:44:07.224Z,15.50
2022-08-28T04:46:34.746Z,11.90
2022-08-28T04:49:04.298Z,18.60
2022-08-28T04:51:31.756Z,14.50
2022-08-28T04:53:59.247Z,18.00
2022-08-28T04:56:27.006Z,18.50
2022-08-28T04:58:54.835Z,20.00
2022-08-28T05:01:24.707Z,20.73
2022-08-28T05:04:00.200Z,14.10
2022-08-28T05:06:29.997Z,16.27
2022-08-28T05:08:59.140Z,20.25
2022-08-28T05:11:33.460Z,12.57
2022-08-28T05:14:07.278Z,20.10
2022-08-28T05:16:43.306Z,14.52
2022-08-28T05:19:10.943Z,16.15
2022-08-28T05:21:38.854Z,21.08
2022-08-28T05:24:07.247Z,20.33
2022-08-28T05:26:35.691Z,17.23
2022-08-28T05:29:06.969Z,13.55
2022-08-28T05:31:35.176Z,16.75
2022-08-28T05:34:04.473Z,16.40
2022-08-28T05:36:37.181Z,13.30
2022-08-28T05:39:08.862Z,14.52
2022-08-28T05:41:37.074Z,17.00
2022-08-28T05:44:08.676Z,11.80
2022-08-28T05:46:42.774Z,15.95
2022-08-28T05:49:10.694Z,14.45
2022-08-28T05:51:41.671Z,20.95
2022-08-28T05:54:09.238Z,12.50
2022-08-28T05:56:40.545Z,14.90
2022-08-28T05:59:09.131Z,18.17
2022-08-28T06:01:42.287Z,14.48
2022-08-28T06:04:25.610Z,13.77
2022-08-28T06:06:53.410Z,17.88
2022-08-28T06:09:29.662Z,11.18
2022-08-28T06:12:02.891Z,16.60
2022-08-28T06:14:31.294Z,15.25
2022-08-28T06:17:00.050Z,19.65
2022-08-28T06:19:30.118Z,14.48
2022-08-28T06:22:01.500Z,18.50
2022-08-28T06:24:34.915Z,15.50
2022-08-28T06:27:02.001Z,13.02
2022-08-28T06:29:29.420Z,14.27
2022-08-28T06:32:04.905Z,12.88
2022-08-28T06:34:32.080Z,16.73
2022-08-28T06:36:59.406Z,10.10
2022-08-28T06:39:27.064Z,20.35
2022-08-28T06:41:54.258Z,11.85
2022-08-28T06:44:21.816Z,19.30
2022-08-28T06:46:52.511Z,17.27
2022-08-28T06:49:20.107Z,14.60
2022-08-28T06:51:47.218Z,20.38
2022-08-28T06:54:21.116Z,17.02
2022-08-28T06:56:48.806Z,13.32
2022-08-28T06:59:16.052Z,17.55
2022-08-28T07:01:43.201Z,13.85
2022-08-28T07:04:13.737Z,14.15
2022-08-28T07:06:53.834Z,17.95
2022-08-28T07:09:23.144Z,15.70
2022-08-28T07:11:51.118Z,16.48
2022-08-28T07:14:18.437Z,13.82
2022-08-28T07:16:46.074Z,12.35
2022-08-28T07:19:14.203Z,14.57
2022-08-28T07:21:44.919Z,16.23
2022-08-28T07:24:15.287Z,16.55
2022-08-28T07:26:44.301Z,13.10
2022-08-28T07:29:12.121Z,15.10
2022-08-28T07:31:50.432Z,18.52
2022-08-28T07:34:21.671Z,14.32
2022-08-28T07:36:54.182Z,20.65
2022-08-28T07:39:21.264Z,18.23
2022-08-28T07:41:48.552Z,23.00
2022-08-28T07:44:34.876Z,12.65
2022-08-28T07:47:05.795Z,18.35
2022-08-28T07:49:34.682Z,11.25
2022-08-28T07:52:02.940Z,14.80
2022-08-28T07:54:29.939Z,18.88
2022-08-28T07:56:57.089Z,16.17
2022-08-28T07:59:24.421Z,12.43
2022-08-28T08:01:52.234Z,13.63
2022-08-28T08:04:21.583Z,18.27
2022-08-28T08:06:54.386Z,18.77
2022-08-28T08:09:24.261Z,18.25
2022-08-28T08:11:51.320Z,17.13
2022-08-28T08:14:18.491Z,19.67
2022-08-28T08:16:47.469Z,18.15
2022-08-28T08:19:16.182Z,18.63
2022-08-28T08:21:48.329Z,21.95
2022-08-28T08:24:21.158Z,16.20
2022-08-28T08:26:56.517Z,12.65
2022-08-28T08:29:31.627Z,17.05
2022-08-28T08:32:06.061Z,18.15
2022-08-28T08:34:38.635Z,18.13
2022-08-28T08:37:06.450Z,13.02
2022-08-28T08:39:35.543Z,13.60
2022-08-28T08:42:07.038Z,18.63
2022-08-28T08:44:42.399Z,14.30
2022-08-28T08:47:51.372Z,15.05
2022-08-28T08:50:34.476Z,16.63
2022-08-28T08:53:22.740Z,12.50
2022-08-28T08:55:54.379Z,17.23
2022-08-28T08:58:34.293Z,11.18
2022-08-28T09:01:25.690Z,17.40
2022-08-28T09:04:03.922Z,16.98
2022-08-28T09:07:13.102Z,13.63
2022-08-28T09:09:53.430Z,23.80
2022-08-28T09:12:27.792Z,10.07
2022-08-28T09:15:18.053Z,12.40
2022-08-28T09:18:15.270Z,12.65
2022-08-28T09:20:42.381Z,18.23
2022-08-28T09:23:12.855Z,10.88
2022-08-28T09:25:59.591Z,11.55
2022-08-28T09:28:30.649Z,19.08
2022-08-28T09:31:03.915Z,11.50
2022-08-28T09:33:48.217Z,10.75
2022-08-28T09:36:37.168Z,16.55
2022-08-28T09:39:05.523Z,14.07
2022-08-28T09:41:54.157Z,19.13
2022-08-28T09:44:21.205Z,12.75
2022-08-28T09:46:51.167Z,17.67
2022-08-28T09:49:28.753Z,13.23
2022-08-28T09:51:59.709Z,16.80
2022-08-28T09:54:41.321Z,16.13
2022-08-28T09:57:08.389Z,18.35
2022-08-28T09:59:35.387Z,10.10
2022-08-28T10:02:49.454Z,14.32
2022-08-28T10:05:28.871Z,9.48
2022-08-28T10:08:09.357Z,9.32
2022-08-28T10:10:55.699Z,11.55
2022-08-28T10:13:39.380Z,23.23
2022-08-28T10:16:14.398Z,15.98
2022-08-28T10:19:02.566Z,9.45
2022-08-28T10:22:10.885Z,13.30
2022-08-28T10:25:05.106Z,14.70
2022-08-28T10:27:50.141Z,8.50
2022-08-28T10:30:23.354Z,11.88
2022-08-28T10:33:07.989Z,8.82
2022-08-28T10:35:55.857Z,12.65
2022-08-28T10:38:47.269Z,11.02
2022-08-28T10:41:41.182Z,8.68
2022-08-28T10:44:11.140Z,13.60
2022-08-28T10:46:49.273Z,7.47
2022-08-28T10:49:49.449Z,9.68
2022-08-28T10:52:31.206Z,11.10
2022-08-28T10:55:24.235Z,9.27
2022-08-28T10:57:58.286Z,13.20
2022-08-28T11:00:28.683Z,10.73
2022-08-28T11:03:32.694Z,12.23
2022-08-28T11:06:11.659Z,6.75
2022-08-28T11:08:39.962Z,9.00
2022-08-28T11:11:35.051Z,9.98
2022-08-28T11:14:02.222Z,9.38
2022-08-28T11:16:30.307Z,12.90
2022-08-28T11:19:40.861Z,12.25
2022-08-28T11:22:48.225Z,8.63
2022-08-28T11:25:32.723Z,14.77
2022-08-28T11:28:24.559Z,9.23
2022-08-28T11:31:06.680Z,13.75
2022-08-28T11:33:53.064Z,9.43
2022-08-28T11:36:20.035Z,12.73
2022-08-28T11:38:53.306Z,11.32
2022-08-28T11:41:35.323Z,13.85
2022-08-28T11:44:11.467Z,7.85
2022-08-28T11:46:50.939Z,15.95
2022-08-28T11:49:24.601Z,9.23
2022-08-28T11:52:24.990Z,16.67
2022-08-28T11:55:21.901Z,11.68
2022-08-28T12:00:56.155Z,11.13
2022-08-28T12:03:40.717Z,13.40
2022-08-28T12:06:08.955Z,12.88
2022-08-28T12:08:45.112Z,11.55
2022-08-28T12:11:40.782Z,10.48
2022-08-28T12:14:09.517Z,7.93
2022-08-28T12:17:00.965Z,13.93
2022-08-28T12:19:52.560Z,10.70
2022-08-28T12:22:39.366Z,13.27
2022-08-28T12:25:36.065Z,15.05
2022-08-28T12:28:33.941Z,10.35
2022-08-28T12:31:52.602Z,8.55
2022-08-28T12:34:31.336Z,9.85
2022-08-28T12:37:02.224Z,9.25
2022-08-28T12:39:33.019Z,8.63
2022-08-28T12:42:03.494Z,10.80
2022-08-28T12:44:33.657Z,12.05
2022-08-28T12:47:00.879Z,10.20
2022-08-28T12:49:37.169Z,14.63
2022-08-28T12:52:23.146Z,12.25
2022-08-28T12:54:55.235Z,11.30
2022-08-28T12:57:25.344Z,10.18
2022-08-28T13:00:09.340Z,8.02
2022-08-28T13:02:36.617Z,10.50
2022-08-28T13:05:30.057Z,10.52
2022-08-28T13:07:59.993Z,9.27
2022-08-28T13:10:39.700Z,8.98
2022-08-28T13:13:19.879Z,9.05
2022-08-28T13:16:09.345Z,12.60
2022-08-28T13:18:55.376Z,5.85
2022-08-28T13:21:33.467Z,8.80
2022-08-28T13:24:20.581Z,6.95
2022-08-28T13:26:50.437Z,11.13
2022-08-28T13:29:24.341Z,9.23
2022-08-28T13:32:17.988Z,8.75
2022-08-28T13:35:09.403Z,11.60
2022-08-28T13:37:48.478Z,20.73
2022-08-28T13:40:53.272Z,10.55
2022-08-28T13:43:11.858Z,9.02
2022-08-28T13:45:43.912Z,8.93
2022-08-28T13:48:17.462Z,15.93
2022-08-28T13:50:49.767Z,12.70
2022-08-28T13:53:20.803Z,18.58
2022-08-28T13:55:50.321Z,8.43
2022-08-28T13:58:17.970Z,10.98
2022-08-28T14:00:49.704Z,9.20
2022-08-28T14:03:35.744Z,12.25
2022-08-28T14:06:12.866Z,6.53
2022-08-28T14:08:41.572Z,9.02
2022-08-28T14:11:12.741Z,9.02
2022-08-28T14:13:47.256Z,14.45
2022-08-28T14:16:25.002Z,10.93
2022-08-28T14:18:53.022Z,11.18
2022-08-28T14:21:21.159Z,11.57
2022-08-28T14:23:48.129Z,13.00
2022-08-28T14:26:15.157Z,11.48
2022-08-28T14:28:42.804Z,8.88
2022-08-28T14:31:14.217Z,12.75
2022-08-28T14:33:42.483Z,12.30
2022-08-28T14:36:22.511Z,10.48
2022-08-28T14:38:54.002Z,8.45
2022-08-28T14:41:23.134Z,11.43
2022-08-28T14:43:50.811Z,8.48
2022-08-28T14:46:24.509Z,11.45
2022-08-28T14:48:51.964Z,8.23
2022-08-28T14:51:19.169Z,11.70
2022-08-28T14:53:46.875Z,11.57
2022-08-28T14:56:13.923Z,11.82
2022-08-28T14:58:41.078Z,10.43
2022-08-28T15:01:08.168Z,10.35
2022-08-28T15:03:35.294Z,9.40
2022-08-28T15:06:09.292Z,10.38
2022-08-28T15:08:37.582Z,9.30
2022-08-28T15:11:10.051Z,10.80
2022-08-28T15:13:37.962Z,12.38
2022-08-28T15:16:16.083Z,12.05
2022-08-28T15:18:44.966Z,8.27
2022-08-28T15:21:32.780Z,10.38
2022-08-28T15:24:02.450Z,8.93
2022-08-28T15:26:31.292Z,11.20
2022-08-28T15:29:02.472Z,12.00
2022-08-28T15:31:49.006Z,10.25
2022-08-28T15:34:28.553Z,16.70
2022-08-28T15:36:57.107Z,10.70
2022-08-28T15:39:45.516Z,14.68
2022-08-28T15:42:13.057Z,9.45
2022-08-28T15:44:40.240Z,13.82
2022-08-28T15:47:08.014Z,9.35
2022-08-28T15:49:43.351Z,13.60
2022-08-28T15:52:14.095Z,8.68
2022-08-28T15:54:41.710Z,11.82
2022-08-28T15:57:08.702Z,10.13
2022-08-28T15:59:42.382Z,12.02
2022-08-28T16:02:16.583Z,8.27
2022-08-28T16:04:43.740Z,7.97
2022-08-28T16:07:11.183Z,12.48
2022-08-28T16:09:38.260Z,15.55
2022-08-28T16:12:06.616Z,15.00
2022-08-28T16:14:34.122Z,13.48
2022-08-28T16:17:05.477Z,9.80
2022-08-28T16:19:41.092Z,13.88
2022-08-28T16:22:13.044Z,10.38
2022-08-28T16:24:40.000Z,8.85
2022-08-28T16:27:09.684Z,7.72
2022-08-28T16:29:40.557Z,7.82
2022-08-28T16:32:07.894Z,12.68
2022-08-28T16:34:35.519Z,11.15
2022-08-28T16:37:04.453Z,6.10
2022-08-28T16:39:31.787Z,9.77
2022-08-28T16:41:58.948Z,8.23
2022-08-28T16:44:26.700Z,9.43
2022-08-28T16:46:55.628Z,7.57
2022-08-28T16:49:23.752Z,8.20
2022-08-28T16:51:51.146Z,8.35
2022-08-28T16:54:18.825Z,5.20
2022-08-28T16:56:46.175Z,12.38
2022-08-28T16:59:20.503Z,12.32
2022-08-28T17:01:53.683Z,8.80
2022-08-28T17:04:21.742Z,6.93
2022-08-28T17:06:49.169Z,8.93
2022-08-28T17:09:16.190Z,8.43
2022-08-28T17:11:43.335Z,9.35
2022-08-28T17:14:12.106Z,9.40
2022-08-28T17:16:39.335Z,9.10
2022-08-28T17:19:06.461Z,8.20
2022-08-28T17:21:52.063Z,9.18
2022-08-28T17:24:19.683Z,12.20
2022-08-28T17:26:47.103Z,8.25
2022-08-28T17:29:14.189Z,10.70
2022-08-28T17:31:41.443Z,8.63
2022-08-28T17:34:08.752Z,8.20
2022-08-28T17:36:38.816Z,7.22
2022-08-28T17:39:10.220Z,8.48
2022-08-28T17:41:37.431Z,7.63
2022-08-28T17:44:05.230Z,17.52
2022-08-28T17:46:37.400Z,9.13
2022-08-28T17:49:07.193Z,11.38
2022-08-28T17:51:42.952Z,16.20
2022-08-28T17:54:18.386Z,7.25
2022-08-28T17:56:46.521Z,6.72
2022-08-28T17:59:14.746Z,8.60
2022-08-28T18:01:44.668Z,6.82
2022-08-28T18:04:13.120Z,10.60
2022-08-28T18:06:40.477Z,6.93
2022-08-28T18:09:09.488Z,7.45
2022-08-28T18:11:37.533Z,6.15
2022-08-28T18:14:05.150Z,6.40
2022-08-28T18:16:34.803Z,5.75
2022-08-28T18:19:03.806Z,6.00
2022-08-28T18:21:31.749Z,5.00
2022-08-28T18:23:58.957Z,5.97
2022-08-28T18:26:26.183Z,3.90
2022-08-28T18:28:53.502Z,4.70
2022-08-28T18:31:20.645Z,9.10
2022-08-28T18:33:47.740Z,10.63
2022-08-28T18:36:16.318Z,4.22
2022-08-28T18:38:44.707Z,5.03
2022-08-28T18:41:12.196Z,5.00
2022-08-28T18:43:39.523Z,8.77
2022-08-28T18:46:09.466Z,8.82
2022-08-28T18:48:38.062Z,4.15
2022-08-28T18:51:10.855Z,7.13
2022-08-28T18:53:38.856Z,3.67
2022-08-28T18:56:10.048Z,6.35
2022-08-28T18:58:40.967Z,5.70
2022-08-28T19:01:09.404Z,5.93
2022-08-28T19:03:36.836Z,4.20
2022-08-28T19:06:06.290Z,4.22
2022-08-28T19:08:35.312Z,7.32
2022-08-28T19:11:11.871Z,6.68
2022-08-28T19:13:41.059Z,8.38
2022-08-28T19:16:08.940Z,4.65
2022-08-28T19:18:36.122Z,3.08
2022-08-28T19:21:16.326Z,3.00
2022-08-28T19:23:51.817Z,5.57
2022-08-28T19:26:22.877Z,8.57
2022-08-28T19:28:50.663Z,7.25
2022-08-28T19:31:18.339Z,4.32
2022-08-28T19:33:46.863Z,7.22
2022-08-28T19:36:14.771Z,4.60
2022-08-28T19:38:42.381Z,3.17
2022-08-28T19:41:11.059Z,4.18
2022-08-28T19:43:42.952Z,5.78
2022-08-28T19:46:19.377Z,4.35
2022-08-28T19:48:52.138Z,5.60
2022-08-28T19:51:23.091Z,3.83
2022-08-28T19:53:58.308Z,6.60
2022-08-28T19:56:28.231Z,6.80
2022-08-28T19:59:01.093Z,5.07
2022-08-28T20:01:31.444Z,6.47
2022-08-28T20:03:59.978Z,3.95
2022-08-28T20:06:28.387Z,4.72
2022-08-28T20:08:55.598Z,7.63
2022-08-28T20:11:30.069Z,6.95
2022-08-28T20:14:04.581Z,5.15
2022-08-28T20:16:35.492Z,4.45
2022-08-28T20:19:04.343Z,4.43
2022-08-28T20:21:37.869Z,3.50
2022-08-28T20:24:13.287Z,2.72
2022-08-28T20:26:40.762Z,3.63
2022-08-28T20:29:09.088Z,3.20
2022-08-28T20:31:40.551Z,5.20
2022-08-28T20:34:10.606Z,4.75
2022-08-28T20:36:38.573Z,2.20
2022-08-28T20:39:09.196Z,3.25
2022-08-28T20:41:38.867Z,5.35
2022-08-28T20:44:07.835Z,7.20
2022-08-28T20:46:40.523Z,6.82
2022-08-28T20:49:11.455Z,6.28
2022-08-28T20:51:56.675Z,2.88
2022-08-28T20:54:34.747Z,3.30
2022-08-28T20:57:04.289Z,6.43
2022-08-28T20:59:35.418Z,4.20
2022-08-28T21:02:13.421Z,3.15
2022-08-28T21:04:42.407Z,2.70
2022-08-28T21:07:10.622Z,3.95
2022-08-28T21:10:03.863Z,3.38
2022-08-28T21:12:25.107Z,3.25
2022-08-28T21:14:53.105Z,5.03
2022-08-28T21:17:28.886Z,4.18
2022-08-28T21:20:01.432Z,5.93
2022-08-28T21:22:31.565Z,2.33
2022-08-28T21:24:59.161Z,5.43
2022-08-28T21:27:26.849Z,4.47
2022-08-28T21:29:59.289Z,4.30
2022-08-28T21:32:28.671Z,4.07
2022-08-28T21:34:56.098Z,3.00
2022-08-28T21:37:23.995Z,2.85
2022-08-28T21:39:52.401Z,4.63
2022-08-28T21:42:21.028Z,4.32
2022-08-28T21:44:51.548Z,9.05
2022-08-28T21:47:23.227Z,4.57
2022-08-28T21:49:53.303Z,4.38
2022-08-28T21:52:23.116Z,6.68
2022-08-28T21:54:50.556Z,2.38
2022-08-28T21:57:17.828Z,2.88
2022-08-28T21:59:44.909Z,6.18
2022-08-28T22:02:12.009Z,6.53
2022-08-28T22:04:39.177Z,4.40
2022-08-28T22:07:06.698Z,3.17
2022-08-28T22:09:33.699Z,4.68
2022-08-28T22:12:01.438Z,5.07
2022-08-28T22:14:28.775Z,5.82
2022-08-28T22:16:56.754Z,4.93
2022-08-28T22:19:23.914Z,3.95
2022-08-28T22:22:09.679Z,4.63
2022-08-28T22:24:37.617Z,5.90
2022-08-28T22:27:05.872Z,5.50
2022-08-28T22:29:36.531Z,7.55
2022-08-28T22:32:06.499Z,6.13
2022-08-28T22:34:45.233Z,8.98
2022-08-28T22:37:13.696Z,7.70
2022-08-28T22:39:42.559Z,4.53
2022-08-28T22:42:10.287Z,4.75
2022-08-28T22:44:38.546Z,4.22
2022-08-28T22:47:06.572Z,4.18
2022-08-28T22:49:33.656Z,5.15
2022-08-28T22:52:03.242Z,7.00
2022-08-28T22:54:33.263Z,4.22
2022-08-28T22:57:00.233Z,5.20
2022-08-28T22:59:28.062Z,3.92
2022-08-28T23:01:55.252Z,4.35
2022-08-28T23:04:22.365Z,7.50
2022-08-28T23:06:49.837Z,6.25
2022-08-28T23:09:16.785Z,5.57
2022-08-28T23:11:44.034Z,8.43
2022-08-28T23:14:11.106Z,7.50
2022-08-28T23:16:38.650Z,6.45
2022-08-28T23:19:09.623Z,5.80
2022-08-28T23:21:43.771Z,7.78
2022-08-28T23:24:16.315Z,4.82
2022-08-28T23:26:45.172Z,10.52
2022-08-28T23:29:12.814Z,4.85
2022-08-28T23:31:40.035Z,4.40
2022-08-28T23:34:07.712Z,6.60
2022-08-28T23:36:35.957Z,6.85
2022-08-28T23:39:05.081Z,6.63
2022-08-28T23:41:33.109Z,5.75
2022-08-28T23:44:03.175Z,6.70
2022-08-28T23:46:32.436Z,6.72
2022-08-28T23:48:59.907Z,8.13
2022-08-28T23:51:27.022Z,7.13
2022-08-28T23:53:55.152Z,9.50
2022-08-28T23:56:22.200Z,10.95
2022-08-28T23:58:55.065Z,7.10
